Here is the Quick Look data you requested

The Data originates at the National Weather Service, and is made available here by the UAlbany Department of Atmospheric and Environmental Sciences

Surface Observations

KAFN 271452Z AUTO 21004KT 10SM FEW075 SCT100 SCT120 17/14 A3001 RMK AO2 SLP167
 T01720139 58005 TSNO=
KASH 271456Z 00000KT 10SM SCT080 19/15 A3001 RMK AO2 SLP170 T01940150 58001=
KBML 271452Z AUTO 00000KT 10SM FEW038 19/09 A2998 RMK AO2 SLP152 T01940089
 56008=
KCON 271451Z AUTO 00000KT 10SM FEW070 BKN110 18/13 A3001 RMK AO2 RAE07 SLP161
 P0000 60001 T01780133 50000=
KCWN 271458Z AUTO 09003KT 10SM CLR 19/09 A3007 RMK AO2 SLP004 T01940088 56007 $=
KDAW 271451Z AUTO 00000KT 10SM FEW070 BKN095 BKN110 21/14 A3000 RMK AO2 SLP155
 T02060139 50003=
KEEN 271456Z AUTO 00000KT 10SM BKN080 17/13 A3000 RMK AO2 SLP177 T01670133
 58009=
KHIE 271452Z AUTO 11004KT 10SM CLR 19/11 A2998 RMK AO2 SLP151 T01940111 58008=
KLEB 271453Z 19006KT 10SM FEW055 18/12 A2998 RMK AO2 SLP146 T01830122 58006=
KMHT 271453Z 28004KT 10SM FEW060 BKN080 BKN200 20/12 A2999 RMK AO2 SLP167
 T02000117 50000=
KMWN 271451Z 23022KT 110SM SCT/// SCT/// BKN008 BKN060 OVC120 06/03 RMK VIS
 N-NE 2 TPS LWR SCT055 BBLO SCT SW NW-NE=
KPSM 271458Z 26004KT 10SM FEW080 BKN120 OVC200 21/14 A2999 RMK AO2A SLP159
 T02050144 50002=